sensor_id;sensor_type;location;lat;lon;timestamp;P1;durP1;ratioP1;P2;durP2;ratioP2
12925;SDS011;6529;50.566;9.774;2023-07-13T00:02:14;2.00;;;1.30;;
12925;SDS011;6529;50.566;9.774;2023-07-13T00:04:40;1.40;;;1.20;;
12925;SDS011;6529;50.566;9.774;2023-07-13T00:07:06;1.50;;;1.30;;
12925;SDS011;6529;50.566;9.774;2023-07-13T00:09:33;1.60;;;1.30;;
12925;SDS011;6529;50.566;9.774;2023-07-13T00:11:58;1.67;;;1.20;;
12925;SDS011;6529;50.566;9.774;2023-07-13T00:14:25;1.73;;;1.40;;
12925;SDS011;6529;50.566;9.774;2023-07-13T00:16:51;1.33;;;1.23;;
12925;SDS011;6529;50.566;9.774;2023-07-13T00:19:17;1.50;;;1.30;;
12925;SDS011;6529;50.566;9.774;2023-07-13T00:21:43;3.00;;;1.20;;
12925;SDS011;6529;50.566;9.774;2023-07-13T00:24:10;1.53;;;1.30;;
12925;SDS011;6529;50.566;9.774;2023-07-13T00:26:38;1.90;;;1.30;;
12925;SDS011;6529;50.566;9.774;2023-07-13T00:29:04;1.33;;;1.23;;
12925;SDS011;6529;50.566;9.774;2023-07-13T00:31:33;1.43;;;1.20;;
12925;SDS011;6529;50.566;9.774;2023-07-13T00:33:59;2.43;;;1.23;;
12925;SDS011;6529;50.566;9.774;2023-07-13T00:36:25;1.93;;;1.33;;
12925;SDS011;6529;50.566;9.774;2023-07-13T00:38:51;1.40;;;1.27;;
12925;SDS011;6529;50.566;9.774;2023-07-13T00:41:17;2.00;;;1.10;;
12925;SDS011;6529;50.566;9.774;2023-07-13T00:43:44;1.40;;;1.30;;
12925;SDS011;6529;50.566;9.774;2023-07-13T00:46:12;2.60;;;1.30;;
12925;SDS011;6529;50.566;9.774;2023-07-13T00:48:45;3.27;;;1.50;;
12925;SDS011;6529;50.566;9.774;2023-07-13T00:51:13;4.70;;;1.60;;
12925;SDS011;6529;50.566;9.774;2023-07-13T00:53:45;3.00;;;1.43;;
12925;SDS011;6529;50.566;9.774;2023-07-13T00:56:11;2.53;;;1.40;;
12925;SDS011;6529;50.566;9.774;2023-07-13T00:58:37;2.50;;;1.50;;
12925;SDS011;6529;50.566;9.774;2023-07-13T01:01:03;2.33;;;1.30;;
12925;SDS011;6529;50.566;9.774;2023-07-13T01:03:29;1.60;;;1.50;;
12925;SDS011;6529;50.566;9.774;2023-07-13T01:05:54;2.53;;;1.30;;
12925;SDS011;6529;50.566;9.774;2023-07-13T01:08:21;2.00;;;1.53;;
12925;SDS011;6529;50.566;9.774;2023-07-13T01:10:54;2.37;;;1.50;;
12925;SDS011;6529;50.566;9.774;2023-07-13T01:13:21;1.93;;;1.43;;
12925;SDS011;6529;50.566;9.774;2023-07-13T01:15:47;2.17;;;1.40;;
12925;SDS011;6529;50.566;9.774;2023-07-13T01:23:22;2.50;;;1.60;;
12925;SDS011;6529;50.566;9.774;2023-07-13T01:25:49;2.40;;;1.47;;
12925;SDS011;6529;50.566;9.774;2023-07-13T01:28:15;3.53;;;1.53;;
12925;SDS011;6529;50.566;9.774;2023-07-13T01:30:42;1.40;;;1.30;;
12925;SDS011;6529;50.566;9.774;2023-07-13T01:33:10;1.73;;;1.50;;
12925;SDS011;6529;50.566;9.774;2023-07-13T01:35:37;1.73;;;1.40;;
12925;SDS011;6529;50.566;9.774;2023-07-13T01:38:04;2.03;;;1.33;;
12925;SDS011;6529;50.566;9.774;2023-07-13T01:40:30;1.67;;;1.53;;
12925;SDS011;6529;50.566;9.774;2023-07-13T01:42:57;2.63;;;1.47;;
12925;SDS011;6529;50.566;9.774;2023-07-13T01:45:23;2.03;;;1.60;;
12925;SDS011;6529;50.566;9.774;2023-07-13T01:47:49;1.43;;;1.33;;
12925;SDS011;6529;50.566;9.774;2023-07-13T01:50:14;1.73;;;1.33;;
12925;SDS011;6529;50.566;9.774;2023-07-13T01:52:40;1.80;;;1.47;;
12925;SDS011;6529;50.566;9.774;2023-07-13T01:55:06;1.47;;;1.37;;
12925;SDS011;6529;50.566;9.774;2023-07-13T01:57:32;2.17;;;1.60;;
12925;SDS011;6529;50.566;9.774;2023-07-13T01:59:58;1.67;;;1.50;;
12925;SDS011;6529;50.566;9.774;2023-07-13T02:02:23;3.33;;;1.70;;
12925;SDS011;6529;50.566;9.774;2023-07-13T02:04:49;2.87;;;1.57;;
12925;SDS011;6529;50.566;9.774;2023-07-13T02:07:15;2.40;;;1.40;;
12925;SDS011;6529;50.566;9.774;2023-07-13T02:09:40;1.93;;;1.40;;
12925;SDS011;6529;50.566;9.774;2023-07-13T02:12:07;1.83;;;1.63;;
12925;SDS011;6529;50.566;9.774;2023-07-13T02:14:33;1.40;;;1.30;;
12925;SDS011;6529;50.566;9.774;2023-07-13T02:16:59;1.57;;;1.30;;
12925;SDS011;6529;50.566;9.774;2023-07-13T02:19:24;3.03;;;1.40;;
12925;SDS011;6529;50.566;9.774;2023-07-13T02:21:50;2.60;;;1.53;;
12925;SDS011;6529;50.566;9.774;2023-07-13T02:24:16;1.53;;;1.43;;
12925;SDS011;6529;50.566;9.774;2023-07-13T02:26:42;2.00;;;1.50;;
12925;SDS011;6529;50.566;9.774;2023-07-13T02:29:11;1.63;;;1.23;;
12925;SDS011;6529;50.566;9.774;2023-07-13T02:31:36;2.07;;;1.87;;
12925;SDS011;6529;50.566;9.774;2023-07-13T02:34:03;2.30;;;1.50;;
12925;SDS011;6529;50.566;9.774;2023-07-13T02:36:29;1.87;;;1.67;;
12925;SDS011;6529;50.566;9.774;2023-07-13T02:38:55;3.30;;;1.60;;
12925;SDS011;6529;50.566;9.774;2023-07-13T02:41:21;2.30;;;1.63;;
12925;SDS011;6529;50.566;9.774;2023-07-13T02:43:48;1.57;;;1.40;;
12925;SDS011;6529;50.566;9.774;2023-07-13T02:46:13;1.80;;;1.70;;
12925;SDS011;6529;50.566;9.774;2023-07-13T02:48:39;1.87;;;1.50;;
12925;SDS011;6529;50.566;9.774;2023-07-13T02:51:05;2.80;;;1.60;;
12925;SDS011;6529;50.566;9.774;2023-07-13T02:53:31;3.10;;;1.60;;
12925;SDS011;6529;50.566;9.774;2023-07-13T02:55:57;2.40;;;1.90;;
12925;SDS011;6529;50.566;9.774;2023-07-13T02:58:22;2.37;;;1.50;;
12925;SDS011;6529;50.566;9.774;2023-07-13T03:00:48;2.43;;;1.70;;
12925;SDS011;6529;50.566;9.774;2023-07-13T03:03:15;2.30;;;1.67;;
12925;SDS011;6529;50.566;9.774;2023-07-13T03:05:41;2.10;;;1.73;;
12925;SDS011;6529;50.566;9.774;2023-07-13T03:08:09;2.70;;;1.60;;
12925;SDS011;6529;50.566;9.774;2023-07-13T03:10:36;3.97;;;1.70;;
12925;SDS011;6529;50.566;9.774;2023-07-13T03:13:02;2.30;;;1.70;;
12925;SDS011;6529;50.566;9.774;2023-07-13T03:15:28;2.97;;;1.80;;
12925;SDS011;6529;50.566;9.774;2023-07-13T03:17:53;3.27;;;1.97;;
12925;SDS011;6529;50.566;9.774;2023-07-13T03:20:19;1.63;;;1.40;;
12925;SDS011;6529;50.566;9.774;2023-07-13T03:22:45;2.20;;;1.57;;
12925;SDS011;6529;50.566;9.774;2023-07-13T03:25:11;2.43;;;1.70;;
12925;SDS011;6529;50.566;9.774;2023-07-13T03:27:37;2.10;;;1.60;;
12925;SDS011;6529;50.566;9.774;2023-07-13T03:30:03;2.20;;;1.60;;
12925;SDS011;6529;50.566;9.774;2023-07-13T03:32:30;2.87;;;1.70;;
12925;SDS011;6529;50.566;9.774;2023-07-13T03:34:55;2.00;;;1.67;;
12925;SDS011;6529;50.566;9.774;2023-07-13T03:37:21;2.30;;;1.83;;
12925;SDS011;6529;50.566;9.774;2023-07-13T03:39:46;2.00;;;1.50;;
12925;SDS011;6529;50.566;9.774;2023-07-13T03:42:12;3.43;;;1.60;;
12925;SDS011;6529;50.566;9.774;2023-07-13T03:44:39;2.03;;;1.57;;
12925;SDS011;6529;50.566;9.774;2023-07-13T03:47:05;1.73;;;1.63;;
12925;SDS011;6529;50.566;9.774;2023-07-13T03:49:31;2.20;;;1.37;;
12925;SDS011;6529;50.566;9.774;2023-07-13T03:51:57;2.10;;;1.90;;
12925;SDS011;6529;50.566;9.774;2023-07-13T03:54:22;2.90;;;2.00;;
12925;SDS011;6529;50.566;9.774;2023-07-13T03:56:48;2.93;;;1.80;;
12925;SDS011;6529;50.566;9.774;2023-07-13T03:59:13;1.93;;;1.73;;
12925;SDS011;6529;50.566;9.774;2023-07-13T04:01:39;2.37;;;1.60;;
12925;SDS011;6529;50.566;9.774;2023-07-13T04:04:05;3.03;;;1.67;;
12925;SDS011;6529;50.566;9.774;2023-07-13T04:06:31;2.00;;;1.80;;
12925;SDS011;6529;50.566;9.774;2023-07-13T04:08:57;2.10;;;1.83;;
12925;SDS011;6529;50.566;9.774;2023-07-13T04:11:26;1.80;;;1.63;;
12925;SDS011;6529;50.566;9.774;2023-07-13T04:13:53;2.70;;;2.00;;
12925;SDS011;6529;50.566;9.774;2023-07-13T04:16:19;3.60;;;1.53;;
12925;SDS011;6529;50.566;9.774;2023-07-13T04:18:45;2.43;;;1.70;;
12925;SDS011;6529;50.566;9.774;2023-07-13T04:21:12;3.47;;;1.63;;
12925;SDS011;6529;50.566;9.774;2023-07-13T04:23:38;3.17;;;1.67;;
12925;SDS011;6529;50.566;9.774;2023-07-13T04:26:04;2.80;;;1.40;;
12925;SDS011;6529;50.566;9.774;2023-07-13T04:28:30;1.60;;;1.50;;
12925;SDS011;6529;50.566;9.774;2023-07-13T04:30:56;2.33;;;1.70;;
12925;SDS011;6529;50.566;9.774;2023-07-13T04:33:22;3.77;;;1.80;;
12925;SDS011;6529;50.566;9.774;2023-07-13T04:35:52;3.40;;;2.00;;
12925;SDS011;6529;50.566;9.774;2023-07-13T04:38:19;2.10;;;1.70;;
12925;SDS011;6529;50.566;9.774;2023-07-13T04:40:45;2.00;;;1.70;;
12925;SDS011;6529;50.566;9.774;2023-07-13T04:43:11;3.63;;;1.83;;
12925;SDS011;6529;50.566;9.774;2023-07-13T04:45:36;2.03;;;1.83;;
12925;SDS011;6529;50.566;9.774;2023-07-13T04:48:02;2.33;;;1.87;;
12925;SDS011;6529;50.566;9.774;2023-07-13T04:50:28;2.03;;;1.50;;
12925;SDS011;6529;50.566;9.774;2023-07-13T04:52:53;1.70;;;1.60;;
12925;SDS011;6529;50.566;9.774;2023-07-13T04:55:19;1.60;;;1.50;;
12925;SDS011;6529;50.566;9.774;2023-07-13T04:57:45;2.13;;;1.70;;
12925;SDS011;6529;50.566;9.774;2023-07-13T05:00:11;3.67;;;1.70;;
12925;SDS011;6529;50.566;9.774;2023-07-13T05:02:38;2.23;;;1.60;;
12925;SDS011;6529;50.566;9.774;2023-07-13T05:05:05;2.80;;;1.60;;
12925;SDS011;6529;50.566;9.774;2023-07-13T05:07:31;2.30;;;1.60;;
12925;SDS011;6529;50.566;9.774;2023-07-13T05:09:58;1.90;;;1.47;;
12925;SDS011;6529;50.566;9.774;2023-07-13T05:12:24;2.83;;;1.50;;
12925;SDS011;6529;50.566;9.774;2023-07-13T05:14:50;3.15;;;1.50;;
12925;SDS011;6529;50.566;9.774;2023-07-13T05:17:16;2.08;;;1.50;;
12925;SDS011;6529;50.566;9.774;2023-07-13T05:19:41;2.28;;;1.52;;
12925;SDS011;6529;50.566;9.774;2023-07-13T05:22:07;2.22;;;1.45;;
12925;SDS011;6529;50.566;9.774;2023-07-13T05:24:33;2.13;;;1.33;;
12925;SDS011;6529;50.566;9.774;2023-07-13T05:26:58;2.55;;;1.73;;
12925;SDS011;6529;50.566;9.774;2023-07-13T05:29:24;3.72;;;1.50;;
12925;SDS011;6529;50.566;9.774;2023-07-13T05:31:50;4.18;;;1.70;;
12925;SDS011;6529;50.566;9.774;2023-07-13T05:34:15;2.20;;;1.45;;
12925;SDS011;6529;50.566;9.774;2023-07-13T05:36:41;3.47;;;1.50;;
12925;SDS011;6529;50.566;9.774;2023-07-13T05:39:07;3.08;;;1.50;;
12925;SDS011;6529;50.566;9.774;2023-07-13T05:41:33;2.08;;;1.40;;
12925;SDS011;6529;50.566;9.774;2023-07-13T05:43:58;1.83;;;1.40;;
12925;SDS011;6529;50.566;9.774;2023-07-13T05:46:24;2.53;;;1.40;;
12925;SDS011;6529;50.566;9.774;2023-07-13T05:48:50;2.78;;;1.35;;
12925;SDS011;6529;50.566;9.774;2023-07-13T05:51:15;4.23;;;1.30;;
12925;SDS011;6529;50.566;9.774;2023-07-13T05:53:41;1.70;;;1.10;;
12925;SDS011;6529;50.566;9.774;2023-07-13T05:56:06;2.40;;;1.30;;
12925;SDS011;6529;50.566;9.774;2023-07-13T05:58:32;1.97;;;1.33;;
12925;SDS011;6529;50.566;9.774;2023-07-13T06:01:02;3.77;;;1.70;;
12925;SDS011;6529;50.566;9.774;2023-07-13T06:03:32;3.87;;;1.43;;
12925;SDS011;6529;50.566;9.774;2023-07-13T06:05:58;3.47;;;1.33;;
12925;SDS011;6529;50.566;9.774;2023-07-13T06:08:25;2.67;;;1.20;;
12925;SDS011;6529;50.566;9.774;2023-07-13T06:10:51;3.37;;;1.23;;
12925;SDS011;6529;50.566;9.774;2023-07-13T06:13:17;3.77;;;1.30;;
12925;SDS011;6529;50.566;9.774;2023-07-13T06:15:47;2.33;;;1.20;;
12925;SDS011;6529;50.566;9.774;2023-07-13T06:18:15;4.80;;;1.50;;
12925;SDS011;6529;50.566;9.774;2023-07-13T06:20:41;3.40;;;1.50;;
12925;SDS011;6529;50.566;9.774;2023-07-13T06:23:06;2.57;;;1.23;;
12925;SDS011;6529;50.566;9.774;2023-07-13T06:25:32;1.70;;;1.23;;
12925;SDS011;6529;50.566;9.774;2023-07-13T06:27:57;2.93;;;1.20;;
12925;SDS011;6529;50.566;9.774;2023-07-13T06:30:23;2.83;;;1.10;;
12925;SDS011;6529;50.566;9.774;2023-07-13T06:32:48;1.80;;;1.17;;
12925;SDS011;6529;50.566;9.774;2023-07-13T06:35:14;3.07;;;1.17;;
12925;SDS011;6529;50.566;9.774;2023-07-13T06:37:40;1.83;;;1.23;;
12925;SDS011;6529;50.566;9.774;2023-07-13T06:40:06;2.17;;;1.33;;
12925;SDS011;6529;50.566;9.774;2023-07-13T06:42:32;2.33;;;1.10;;
12925;SDS011;6529;50.566;9.774;2023-07-13T06:44:57;1.23;;;1.07;;
12925;SDS011;6529;50.566;9.774;2023-07-13T06:47:23;3.10;;;1.20;;
12925;SDS011;6529;50.566;9.774;2023-07-13T06:49:48;2.43;;;1.23;;
12925;SDS011;6529;50.566;9.774;2023-07-13T06:52:14;3.27;;;1.00;;
12925;SDS011;6529;50.566;9.774;2023-07-13T06:54:39;2.97;;;1.03;;
12925;SDS011;6529;50.566;9.774;2023-07-13T06:57:05;2.67;;;1.00;;
12925;SDS011;6529;50.566;9.774;2023-07-13T06:59:30;1.63;;;1.20;;
12925;SDS011;6529;50.566;9.774;2023-07-13T07:01:56;1.67;;;0.80;;
12925;SDS011;6529;50.566;9.774;2023-07-13T07:04:22;1.73;;;1.10;;
12925;SDS011;6529;50.566;9.774;2023-07-13T07:06:47;3.93;;;0.97;;
12925;SDS011;6529;50.566;9.774;2023-07-13T07:09:13;2.20;;;1.00;;
12925;SDS011;6529;50.566;9.774;2023-07-13T07:11:38;1.90;;;1.07;;
12925;SDS011;6529;50.566;9.774;2023-07-13T07:14:04;1.43;;;1.00;;
12925;SDS011;6529;50.566;9.774;2023-07-13T07:16:29;2.30;;;1.20;;
12925;SDS011;6529;50.566;9.774;2023-07-13T07:18:55;1.90;;;1.03;;
12925;SDS011;6529;50.566;9.774;2023-07-13T07:21:21;2.30;;;1.30;;
12925;SDS011;6529;50.566;9.774;2023-07-13T07:23:48;2.33;;;0.90;;
12925;SDS011;6529;50.566;9.774;2023-07-13T07:26:13;1.57;;;0.93;;
12925;SDS011;6529;50.566;9.774;2023-07-13T07:28:39;1.33;;;1.10;;
12925;SDS011;6529;50.566;9.774;2023-07-13T07:31:05;2.40;;;1.23;;
12925;SDS011;6529;50.566;9.774;2023-07-13T07:33:32;2.20;;;1.05;;
12925;SDS011;6529;50.566;9.774;2023-07-13T07:35:59;2.33;;;1.30;;
12925;SDS011;6529;50.566;9.774;2023-07-13T07:38:24;2.67;;;1.05;;
12925;SDS011;6529;50.566;9.774;2023-07-13T07:40:51;2.20;;;1.00;;
12925;SDS011;6529;50.566;9.774;2023-07-13T07:43:17;1.73;;;1.00;;
12925;SDS011;6529;50.566;9.774;2023-07-13T07:45:43;1.50;;;0.73;;
12925;SDS011;6529;50.566;9.774;2023-07-13T07:48:10;2.00;;;1.10;;
12925;SDS011;6529;50.566;9.774;2023-07-13T07:50:36;2.75;;;0.90;;
12925;SDS011;6529;50.566;9.774;2023-07-13T07:53:03;1.98;;;1.00;;
12925;SDS011;6529;50.566;9.774;2023-07-13T07:55:32;1.92;;;1.10;;
12925;SDS011;6529;50.566;9.774;2023-07-13T07:57:59;0.70;;;0.70;;
12925;SDS011;6529;50.566;9.774;2023-07-13T08:00:25;1.55;;;1.00;;
12925;SDS011;6529;50.566;9.774;2023-07-13T08:02:51;1.77;;;0.90;;
12925;SDS011;6529;50.566;9.774;2023-07-13T08:05:17;1.35;;;0.82;;
12925;SDS011;6529;50.566;9.774;2023-07-13T08:07:43;1.52;;;0.85;;
12925;SDS011;6529;50.566;9.774;2023-07-13T08:10:08;1.88;;;1.02;;
12925;SDS011;6529;50.566;9.774;2023-07-13T08:12:35;2.38;;;1.00;;
12925;SDS011;6529;50.566;9.774;2023-07-13T08:15:02;1.60;;;1.00;;
12925;SDS011;6529;50.566;9.774;2023-07-13T08:17:27;1.60;;;0.90;;
12925;SDS011;6529;50.566;9.774;2023-07-13T08:19:53;2.13;;;1.00;;
12925;SDS011;6529;50.566;9.774;2023-07-13T08:22:19;2.65;;;0.80;;
12925;SDS011;6529;50.566;9.774;2023-07-13T08:24:44;1.17;;;0.90;;
12925;SDS011;6529;50.566;9.774;2023-07-13T08:27:10;1.73;;;0.90;;
12925;SDS011;6529;50.566;9.774;2023-07-13T08:29:37;0.93;;;0.80;;
12925;SDS011;6529;50.566;9.774;2023-07-13T08:32:02;2.30;;;0.95;;
12925;SDS011;6529;50.566;9.774;2023-07-13T08:34:29;2.00;;;1.25;;
12925;SDS011;6529;50.566;9.774;2023-07-13T08:36:55;2.47;;;0.90;;
12925;SDS011;6529;50.566;9.774;2023-07-13T08:39:20;1.08;;;0.80;;
12925;SDS011;6529;50.566;9.774;2023-07-13T08:41:50;1.75;;;0.90;;
12925;SDS011;6529;50.566;9.774;2023-07-13T08:47:22;1.40;;;0.80;;
12925;SDS011;6529;50.566;9.774;2023-07-13T08:49:49;1.30;;;0.88;;
12925;SDS011;6529;50.566;9.774;2023-07-13T08:52:17;0.80;;;0.80;;
12925;SDS011;6529;50.566;9.774;2023-07-13T08:55:05;2.75;;;0.80;;
12925;SDS011;6529;50.566;9.774;2023-07-13T08:57:37;1.40;;;0.80;;
12925;SDS011;6529;50.566;9.774;2023-07-13T09:00:08;1.50;;;0.88;;
12925;SDS011;6529;50.566;9.774;2023-07-13T09:02:42;2.05;;;1.00;;
12925;SDS011;6529;50.566;9.774;2023-07-13T09:14:09;1.90;;;0.90;;
12925;SDS011;6529;50.566;9.774;2023-07-13T09:16:46;1.10;;;0.90;;
12925;SDS011;6529;50.566;9.774;2023-07-13T09:19:16;2.03;;;1.00;;
12925;SDS011;6529;50.566;9.774;2023-07-13T09:21:55;1.15;;;0.93;;
12925;SDS011;6529;50.566;9.774;2023-07-13T09:24:28;4.18;;;0.98;;
12925;SDS011;6529;50.566;9.774;2023-07-13T09:26:55;1.80;;;0.93;;
12925;SDS011;6529;50.566;9.774;2023-07-13T09:29:30;1.15;;;0.82;;
12925;SDS011;6529;50.566;9.774;2023-07-13T09:32:01;1.33;;;0.70;;
12925;SDS011;6529;50.566;9.774;2023-07-13T09:34:31;1.55;;;1.27;;
12925;SDS011;6529;50.566;9.774;2023-07-13T09:36:58;2.40;;;1.00;;
12925;SDS011;6529;50.566;9.774;2023-07-13T09:39:27;1.10;;;1.00;;
12925;SDS011;6529;50.566;9.774;2023-07-13T09:42:07;1.70;;;0.80;;
12925;SDS011;6529;50.566;9.774;2023-07-13T09:44:49;0.65;;;0.65;;
12925;SDS011;6529;50.566;9.774;2023-07-13T09:47:26;3.47;;;1.13;;
12925;SDS011;6529;50.566;9.774;2023-07-13T09:49:58;2.60;;;0.75;;
12925;SDS011;6529;50.566;9.774;2023-07-13T09:52:25;1.02;;;0.70;;
12925;SDS011;6529;50.566;9.774;2023-07-13T09:54:52;1.67;;;0.80;;
12925;SDS011;6529;50.566;9.774;2023-07-13T09:57:24;4.03;;;0.88;;
12925;SDS011;6529;50.566;9.774;2023-07-13T09:59:52;1.08;;;0.80;;
12925;SDS011;6529;50.566;9.774;2023-07-13T10:05:02;1.00;;;0.80;;
12925;SDS011;6529;50.566;9.774;2023-07-13T10:07:38;1.30;;;0.73;;
12925;SDS011;6529;50.566;9.774;2023-07-13T10:10:13;0.63;;;0.60;;
12925;SDS011;6529;50.566;9.774;2023-07-13T10:12:40;1.90;;;0.73;;
12925;SDS011;6529;50.566;9.774;2023-07-13T10:15:07;0.70;;;0.60;;
12925;SDS011;6529;50.566;9.774;2023-07-13T10:17:40;1.10;;;0.82;;
12925;SDS011;6529;50.566;9.774;2023-07-13T10:20:06;1.75;;;0.70;;
12925;SDS011;6529;50.566;9.774;2023-07-13T10:22:39;1.52;;;0.70;;
12925;SDS011;6529;50.566;9.774;2023-07-13T10:25:21;0.60;;;0.60;;
12925;SDS011;6529;50.566;9.774;2023-07-13T10:27:50;1.27;;;0.80;;
12925;SDS011;6529;50.566;9.774;2023-07-13T10:30:20;0.60;;;0.60;;
12925;SDS011;6529;50.566;9.774;2023-07-13T10:32:50;0.90;;;0.70;;
12925;SDS011;6529;50.566;9.774;2023-07-13T10:35:18;1.02;;;0.80;;
12925;SDS011;6529;50.566;9.774;2023-07-13T10:37:51;1.23;;;0.77;;
12925;SDS011;6529;50.566;9.774;2023-07-13T10:40:25;1.02;;;0.73;;
12925;SDS011;6529;50.566;9.774;2023-07-13T10:42:57;1.27;;;1.10;;
12925;SDS011;6529;50.566;9.774;2023-07-13T10:45:25;1.85;;;0.80;;
12925;SDS011;6529;50.566;9.774;2023-07-13T10:47:53;1.05;;;0.60;;
12925;SDS011;6529;50.566;9.774;2023-07-13T10:50:22;0.95;;;0.73;;
12925;SDS011;6529;50.566;9.774;2023-07-13T10:52:50;0.80;;;0.70;;
12925;SDS011;6529;50.566;9.774;2023-07-13T10:58:34;0.98;;;0.80;;
12925;SDS011;6529;50.566;9.774;2023-07-13T11:01:09;1.60;;;0.85;;
12925;SDS011;6529;50.566;9.774;2023-07-13T11:03:55;0.57;;;0.57;;
12925;SDS011;6529;50.566;9.774;2023-07-13T11:08:58;0.75;;;0.70;;
12925;SDS011;6529;50.566;9.774;2023-07-13T11:11:43;1.55;;;0.77;;
12925;SDS011;6529;50.566;9.774;2023-07-13T11:16:52;0.93;;;0.60;;
12925;SDS011;6529;50.566;9.774;2023-07-13T11:35:35;0.50;;;0.50;;
12925;SDS011;6529;50.566;9.774;2023-07-13T11:38:03;2.05;;;0.80;;
12925;SDS011;6529;50.566;9.774;2023-07-13T11:40:40;0.65;;;0.63;;
12925;SDS011;6529;50.566;9.774;2023-07-13T11:43:07;2.15;;;0.70;;
12925;SDS011;6529;50.566;9.774;2023-07-13T11:45:33;1.40;;;0.77;;
12925;SDS011;6529;50.566;9.774;2023-07-13T11:47:59;0.93;;;0.70;;
12925;SDS011;6529;50.566;9.774;2023-07-13T11:50:26;1.35;;;0.80;;
12925;SDS011;6529;50.566;9.774;2023-07-13T11:52:52;0.75;;;0.50;;
12925;SDS011;6529;50.566;9.774;2023-07-13T11:55:21;0.88;;;0.63;;
12925;SDS011;6529;50.566;9.774;2023-07-13T11:57:59;0.93;;;0.70;;
12925;SDS011;6529;50.566;9.774;2023-07-13T12:00:28;1.08;;;0.80;;
12925;SDS011;6529;50.566;9.774;2023-07-13T12:02:58;0.80;;;0.70;;
12925;SDS011;6529;50.566;9.774;2023-07-13T12:05:27;0.85;;;0.60;;
12925;SDS011;6529;50.566;9.774;2023-07-13T12:07:54;0.80;;;0.55;;
12925;SDS011;6529;50.566;9.774;2023-07-13T12:10:24;1.17;;;0.63;;
12925;SDS011;6529;50.566;9.774;2023-07-13T12:12:55;1.58;;;0.70;;
12925;SDS011;6529;50.566;9.774;2023-07-13T12:15:27;1.63;;;0.70;;
12925;SDS011;6529;50.566;9.774;2023-07-13T12:18:15;1.10;;;0.80;;
12925;SDS011;6529;50.566;9.774;2023-07-13T12:20:44;1.08;;;0.70;;
12925;SDS011;6529;50.566;9.774;2023-07-13T12:23:15;0.65;;;0.60;;
12925;SDS011;6529;50.566;9.774;2023-07-13T12:25:50;1.45;;;0.85;;
12925;SDS011;6529;50.566;9.774;2023-07-13T12:28:23;1.02;;;0.80;;
12925;SDS011;6529;50.566;9.774;2023-07-13T12:30:57;0.70;;;0.70;;
12925;SDS011;6529;50.566;9.774;2023-07-13T12:33:24;1.17;;;0.90;;
12925;SDS011;6529;50.566;9.774;2023-07-13T12:35:53;1.33;;;0.80;;
12925;SDS011;6529;50.566;9.774;2023-07-13T12:38:18;1.55;;;0.80;;
12925;SDS011;6529;50.566;9.774;2023-07-13T12:40:50;2.13;;;0.90;;
12925;SDS011;6529;50.566;9.774;2023-07-13T12:43:17;2.10;;;0.88;;
12925;SDS011;6529;50.566;9.774;2023-07-13T12:45:56;1.00;;;0.90;;
12925;SDS011;6529;50.566;9.774;2023-07-13T12:48:30;1.08;;;0.60;;
12925;SDS011;6529;50.566;9.774;2023-07-13T12:51:04;3.17;;;0.93;;
12925;SDS011;6529;50.566;9.774;2023-07-13T12:53:38;1.40;;;0.90;;
12925;SDS011;6529;50.566;9.774;2023-07-13T12:56:09;1.05;;;0.70;;
12925;SDS011;6529;50.566;9.774;2023-07-13T12:58:50;1.67;;;0.80;;
12925;SDS011;6529;50.566;9.774;2023-07-13T13:01:21;1.23;;;1.00;;
12925;SDS011;6529;50.566;9.774;2023-07-13T13:03:51;1.00;;;0.90;;
12925;SDS011;6529;50.566;9.774;2023-07-13T13:08:45;1.00;;;0.90;;
12925;SDS011;6529;50.566;9.774;2023-07-13T13:11:13;1.08;;;1.00;;
12925;SDS011;6529;50.566;9.774;2023-07-13T13:13:41;1.00;;;0.90;;
12925;SDS011;6529;50.566;9.774;2023-07-13T13:16:52;2.50;;;0.90;;
12925;SDS011;6529;50.566;9.774;2023-07-13T13:18:57;1.05;;;0.93;;
12925;SDS011;6529;50.566;9.774;2023-07-13T13:21:27;1.10;;;0.90;;
12925;SDS011;6529;50.566;9.774;2023-07-13T13:23:52;1.23;;;0.88;;
12925;SDS011;6529;50.566;9.774;2023-07-13T13:26:18;1.40;;;1.00;;
12925;SDS011;6529;50.566;9.774;2023-07-13T13:28:45;0.73;;;0.73;;
12925;SDS011;6529;50.566;9.774;2023-07-13T13:31:12;1.55;;;1.00;;
12925;SDS011;6529;50.566;9.774;2023-07-13T13:33:39;2.97;;;0.90;;
12925;SDS011;6529;50.566;9.774;2023-07-13T13:38:40;1.20;;;0.88;;
12925;SDS011;6529;50.566;9.774;2023-07-13T13:41:07;1.25;;;0.90;;
12925;SDS011;6529;50.566;9.774;2023-07-13T13:43:38;1.08;;;0.93;;
12925;SDS011;6529;50.566;9.774;2023-07-13T13:46:05;1.77;;;1.00;;
12925;SDS011;6529;50.566;9.774;2023-07-13T13:48:39;2.45;;;1.00;;
12925;SDS011;6529;50.566;9.774;2023-07-13T13:51:15;1.55;;;0.90;;
12925;SDS011;6529;50.566;9.774;2023-07-13T13:53:43;2.25;;;1.10;;
12925;SDS011;6529;50.566;9.774;2023-07-13T13:56:10;1.05;;;0.90;;
12925;SDS011;6529;50.566;9.774;2023-07-13T13:58:36;3.63;;;1.08;;
12925;SDS011;6529;50.566;9.774;2023-07-13T14:01:02;1.77;;;1.00;;
12925;SDS011;6529;50.566;9.774;2023-07-13T14:03:31;1.15;;;0.95;;
12925;SDS011;6529;50.566;9.774;2023-07-13T14:05:56;1.83;;;1.00;;
12925;SDS011;6529;50.566;9.774;2023-07-13T14:08:22;1.17;;;0.90;;
12925;SDS011;6529;50.566;9.774;2023-07-13T14:10:49;1.10;;;1.00;;
12925;SDS011;6529;50.566;9.774;2023-07-13T14:13:20;2.20;;;1.10;;
12925;SDS011;6529;50.566;9.774;2023-07-13T14:15:51;1.70;;;1.20;;
12925;SDS011;6529;50.566;9.774;2023-07-13T14:18:18;1.77;;;1.00;;
12925;SDS011;6529;50.566;9.774;2023-07-13T14:20:44;1.50;;;1.00;;
12925;SDS011;6529;50.566;9.774;2023-07-13T14:23:11;2.05;;;1.00;;
12925;SDS011;6529;50.566;9.774;2023-07-13T14:25:38;1.58;;;1.00;;
12925;SDS011;6529;50.566;9.774;2023-07-13T14:28:20;1.48;;;1.10;;
12925;SDS011;6529;50.566;9.774;2023-07-13T14:30:47;1.25;;;1.10;;
12925;SDS011;6529;50.566;9.774;2023-07-13T14:33:13;1.48;;;1.00;;
12925;SDS011;6529;50.566;9.774;2023-07-13T14:35:39;1.20;;;1.10;;
12925;SDS011;6529;50.566;9.774;2023-07-13T14:38:05;1.95;;;1.20;;
12925;SDS011;6529;50.566;9.774;2023-07-13T14:40:39;2.33;;;1.20;;
12925;SDS011;6529;50.566;9.774;2023-07-13T14:43:04;1.00;;;0.90;;
12925;SDS011;6529;50.566;9.774;2023-07-13T14:45:39;1.30;;;1.10;;
12925;SDS011;6529;50.566;9.774;2023-07-13T14:48:14;2.65;;;1.30;;
12925;SDS011;6529;50.566;9.774;2023-07-13T14:50:42;2.75;;;1.20;;
12925;SDS011;6529;50.566;9.774;2023-07-13T14:53:11;1.50;;;1.00;;
12925;SDS011;6529;50.566;9.774;2023-07-13T14:55:38;1.98;;;1.25;;
12925;SDS011;6529;50.566;9.774;2023-07-13T14:58:04;2.13;;;1.10;;
12925;SDS011;6529;50.566;9.774;2023-07-13T15:00:29;3.65;;;0.98;;
12925;SDS011;6529;50.566;9.774;2023-07-13T15:02:56;1.30;;;1.10;;
12925;SDS011;6529;50.566;9.774;2023-07-13T15:05:27;3.60;;;1.20;;
12925;SDS011;6529;50.566;9.774;2023-07-13T15:07:56;2.72;;;1.30;;
12925;SDS011;6529;50.566;9.774;2023-07-13T15:10:29;1.30;;;1.20;;
12925;SDS011;6529;50.566;9.774;2023-07-13T15:13:00;1.10;;;1.00;;
12925;SDS011;6529;50.566;9.774;2023-07-13T15:15:37;2.30;;;1.13;;
12925;SDS011;6529;50.566;9.774;2023-07-13T15:18:05;1.77;;;1.10;;
12925;SDS011;6529;50.566;9.774;2023-07-13T15:20:34;2.08;;;1.30;;
12925;SDS011;6529;50.566;9.774;2023-07-13T15:23:00;2.78;;;1.00;;
12925;SDS011;6529;50.566;9.774;2023-07-13T15:25:27;1.20;;;1.00;;
12925;SDS011;6529;50.566;9.774;2023-07-13T15:27:55;1.98;;;1.10;;
12925;SDS011;6529;50.566;9.774;2023-07-13T15:30:22;1.33;;;0.95;;
12925;SDS011;6529;50.566;9.774;2023-07-13T15:32:50;1.50;;;1.00;;
12925;SDS011;6529;50.566;9.774;2023-07-13T15:35:17;2.80;;;1.20;;
12925;SDS011;6529;50.566;9.774;2023-07-13T15:37:47;1.85;;;1.10;;
12925;SDS011;6529;50.566;9.774;2023-07-13T15:40:13;1.77;;;1.08;;
12925;SDS011;6529;50.566;9.774;2023-07-13T15:42:40;2.08;;;1.10;;
12925;SDS011;6529;50.566;9.774;2023-07-13T15:47:42;1.63;;;0.93;;
12925;SDS011;6529;50.566;9.774;2023-07-13T15:50:13;1.70;;;1.00;;
12925;SDS011;6529;50.566;9.774;2023-07-13T15:52:44;2.67;;;1.05;;
12925;SDS011;6529;50.566;9.774;2023-07-13T15:55:13;1.15;;;0.85;;
12925;SDS011;6529;50.566;9.774;2023-07-13T15:57:40;1.10;;;1.00;;